• Join FlightAware (Why Join?)
  • Login
  • US Flag 
12:26AM EDT


 

Airport Tracker/Info


-or-


 

Live Flight TrackerFlight Track Log ✈ N673DW ✈ 06-May-2013 ✈ KVQQ - KVQQ

Flight Track Log - Related Links

Times and Time Zones

All times are in EDT time to prevent confusion due to time zone crossing. See the N673DW flight status page for this flight to view local times or setup timezone preferences in your user account.

Time Position Orientation Groundspeed Altitude Reporting Facility
EDT Latitude Longitude Course Direction KTS MPH feet Rate Location/Type
09:54AM 30.2189 -81.8997 252° West 85 98 500  Level Jacksonville Center
09:54AM 30.2147 -81.9142 252° West 72 83 900 660 Climbing Jacksonville Center
09:55AM 30.2150 -81.9358 271° West 65 75 1,600 180 Climbing Jacksonville Center
09:57AM 30.2135 -81.9406 250° West  Level FlightAware Approximate
09:59AM 30.2261 -82.0489 250° West 91 105 2,000  Level Jacksonville Center
10:01AM 30.2239 -82.0448 122° Southeast  Level FlightAware Approximate
10:01AM 30.2556 -82.0750 122° Southeast 112 129 2,000  Level Jacksonville Center
10:03AM 30.3117 -82.0503 21° North 100 115 2,000  Level Jacksonville Center
10:04AM 30.2048 -81.9681 250° West  Level FlightAware Approximate
10:04AM 30.3306 -82.0311 41° Northeast 105 121 2,000  Level Jacksonville Center
10:05AM 30.2036 -81.9720 250° West  Level FlightAware Approximate
10:05AM 30.3575 -82.0164 25° Northeast 105 121 2,000  Level Jacksonville Center
10:06AM 30.3697 -81.9825 67° East 112 129 1,900 -60 Descending Jacksonville Center
10:09AM 30.3082 -81.9396 149° Southeast  Level Estimated
10:11AM 30.3208 -81.8772 149° Southeast 89 102 1,800  Level Jacksonville Center
10:11AM 30.3000 -81.8772 180° South 85 98 1,500 -600 Descending Jacksonville Center
10:13AM 30.2750 -81.8750 176° South 87 100 700 -540 Descending Jacksonville Center
10:14AM 30.2500 -81.8753 181° South 91 105 500 -60 Descending Jacksonville Center
10:15AM 30.2289 -81.8661 159° South 99 114 600 60 Climbing Jacksonville Center
10:16AM 30.2188 -81.8772 149° Southeast  Level Estimated
10:17AM 30.2167 -81.8667 180° South  Level FlightAware Approximate
10:24AM 30.2188 -81.8772 180° South  Level Estimated
10:25AM 30.2188 -81.8772 180° South  Level Estimated
10:26AM 30.2188 -81.8772 180° South  Level Estimated
10:27AM 30.2188 -81.8772 180° South  Level Estimated
10:28AM 30.2188 -81.8772 180° South  Level Estimated
10:29AM 30.2188 -81.8772 180° South  Level Estimated
10:30AM 30.2188 -81.8772 180° South  Level Estimated
10:31AM 30.2188 -81.8772 180° South  Level Estimated